Time;durP1;ratioP1;P1;durP2;ratioP2;P2;SDS_P1;SDS_P2;PMS_P1;PMS_P2;Temp;Humidity;BMP_temperature;BMP_pressure;BME280_temperature;BME280_humidity;BME280_pressure;Samples;Min_cycle;Max_cycle;Signal;HPM_P1;HPM_P2
2022/07/17 03:32:20;;;;;;;;;;;;;;;10.22;89.96;100465.25;5744904;23;20074;-85
2022/07/17 03:34:58;;;;;;;;;;;;;;;;;;;;;
2022/07/17 03:37:27;;;;;;;;;;;;;;;10.13;89.65;100476.97;5083140;28;19924;-85
2022/07/17 03:39:55;;;;;;;;;;;;;;;10.09;90.96;100480.63;5082114;28;19927;-87
2022/07/17 03:42:20;;;;;;;;;;;;;;;10.07;88.89;100477.16;5081355;28;19942;-84
2022/07/17 03:44:46;;;;;;;;;;;;;;;10.34;90.68;100488.75;5082811;28;19924;-84
2022/07/17 03:47:11;;;;;;;;;;;;;;;10.08;88.69;100484.19;5061715;28;19920;-84
2022/07/17 03:49:37;;;;;;;;;;;;;;;10.42;91.08;100481.44;5082505;28;19920;-84
2022/07/17 03:52:02;;;;;;;;;;;;;;;10.26;89.27;100481.00;5083154;28;19924;-84
2022/07/17 03:54:27;;;;;;;;;;;;;;;10.51;91.23;100475.84;5082604;28;20011;-84
2022/07/17 03:56:53;;;;;;;;;;;;;;;10.34;89.69;100486.94;5082401;28;19923;-84
2022/07/17 03:59:21;;;;;;;;;;;;;;;10.36;90.84;100489.56;5082308;28;19923;-87
2022/07/17 04:01:47;;;;;;;;;;;;;;;10.30;89.93;100482.63;5081447;28;19916;-87
2022/07/17 04:04:20;;;;;;;;;;;;;;;10.27;89.69;100485.34;5063801;28;19916;-87
2022/07/17 04:06:47;;;;;;;;;;;;;;;10.30;90.56;100487.91;5081761;28;20019;-94
2022/07/17 04:12:33;;;;;;;;;;;;;;;10.37;91.60;100488.66;5082147;28;19916;-88
2022/07/17 04:15:01;;;;;;;;;;;;;;;10.21;89.84;100488.22;5064180;28;19939;-89
2022/07/17 04:17:44;;;;;;;;;;;;;;;10.21;91.33;100493.53;5062876;28;20412;-89
2022/07/17 04:20:29;;;;;;;;;;;;;;;10.28;91.06;100502.13;5063351;28;19920;-88
2022/07/17 04:23:05;;;;;;;;;;;;;;;10.22;89.48;100497.88;5062581;28;19966;-88
2022/07/17 04:25:35;;;;;;;;;;;;;;;10.23;91.92;100499.63;5063327;28;19966;-87
2022/07/17 04:30:55;;;;;;;;;;;;;;;10.28;91.79;100503.00;5025724;28;19925;-87
2022/07/17 04:33:30;;;;;;;;;;;;;;;;;;;;;
2022/07/17 04:36:10;;;;;;;;;;;;;;;10.12;90.29;100504.38;5038366;28;20012;-88
2022/07/17 04:38:47;;;;;;;;;;;;;;;10.17;91.57;100505.97;5039665;28;19923;-90
2022/07/17 12:38:12;;;;;;;;;;;;;;;10.45;87.26;100431.00;5710735;23;20027;-86
2022/07/17 12:40:37;;;;;;;;;;;;;;;10.61;89.21;100425.19;5051802;28;20015;-84
2022/07/17 12:43:03;;;;;;;;;;;;;;;10.62;86.75;100433.06;5052022;28;19921;-87
2022/07/17 12:45:28;;;;;;;;;;;;;;;10.87;88.74;100437.56;5051808;28;19917;-87
2022/07/17 12:47:53;;;;;;;;;;;;;;;10.83;88.31;100433.28;5051859;28;20352;-86
2022/07/17 12:50:19;;;;;;;;;;;;;;;10.90;90.23;100426.88;5050312;28;19921;-88
2022/07/17 12:52:44;;;;;;;;;;;;;;;10.59;87.64;100424.38;5050520;28;19992;-85
2022/07/17 12:55:11;;;;;;;;;;;;;;;10.88;89.20;100418.97;5052072;28;20011;-89
2022/07/17 12:57:36;;;;;;;;;;;;;;;10.64;87.75;100430.38;5050359;28;19925;-86
2022/07/17 13:00:04;;;;;;;;;;;;;;;10.45;88.28;100431.00;5050973;28;19917;-88
2022/07/17 13:02:29;;;;;;;;;;;;;;;11.36;86.84;100413.75;5053864;28;19921;-86
2022/07/17 13:04:54;;;;;;;;;;;;;;;11.22;86.87;100411.63;5055834;28;20007;-88
2022/07/17 13:07:20;;;;;;;;;;;;;;;11.00;87.75;100417.66;5054384;28;19917;-88
2022/07/17 13:09:45;;;;;;;;;;;;;;;10.60;88.44;100419.03;5055746;28;20070;-88
2022/07/17 13:12:12;;;;;;;;;;;;;;;10.78;88.28;100417.53;5055500;28;19916;-86
2022/07/17 13:14:37;;;;;;;;;;;;;;;10.56;86.20;100401.47;5055624;28;19921;-88
2022/07/17 13:17:03;;;;;;;;;;;;;;;10.38;86.71;100413.53;5055654;28;20016;-88
2022/07/17 13:19:28;;;;;;;;;;;;;;;10.37;83.48;100409.19;5055496;28;19927;-87
2022/07/17 13:21:54;;;;;;;;;;;;;;;10.35;85.24;100406.59;5055673;28;19913;-87
2022/07/17 13:24:19;;;;;;;;;;;;;;;10.15;83.42;100401.88;5054297;28;19920;-88
2022/07/17 13:26:44;;;;;;;;;;;;;;;10.51;84.97;100395.47;5055489;28;19921;-86
2022/07/17 13:29:09;;;;;;;;;;;;;;;10.33;82.84;100389.00;5055454;28;19917;-89
2022/07/17 13:31:35;;;;;;;;;;;;;;;10.64;85.26;100387.97;5054654;28;19917;-87
2022/07/17 13:34:01;;;;;;;;;;;;;;;10.31;82.96;100396.94;5054600;28;20271;-88
2022/07/17 13:36:26;;;;;;;;;;;;;;;10.61;84.94;100394.25;5055350;28;19924;-89
2022/07/17 13:38:51;;;;;;;;;;;;;;;10.38;83.56;100381.75;5056949;28;20009;-84
2022/07/17 13:41:16;;;;;;;;;;;;;;;10.36;86.45;100386.25;5075350;28;20271;-86
2022/07/17 13:43:42;;;;;;;;;;;;;;;10.29;84.80;100392.59;5074926;28;20033;-86
2022/07/17 13:46:07;;;;;;;;;;;;;;;10.17;84.82;100388.59;5075130;28;19928;-86
2022/07/17 13:48:32;;;;;;;;;;;;;;;10.17;83.75;100380.63;5074919;28;20384;-87
2022/07/17 13:50:58;;;;;;;;;;;;;;;10.35;83.15;100395.97;5075019;28;20042;-87
2022/07/17 13:53:23;;;;;;;;;;;;;;;10.26;84.01;100383.00;5073735;28;19916;-87
2022/07/17 13:55:49;;;;;;;;;;;;;;;10.14;83.46;100378.09;5074676;28;19975;-88
2022/07/17 13:58:14;;;;;;;;;;;;;;;10.35;85.46;100374.78;5074624;28;19916;-87
2022/07/17 14:00:42;;;;;;;;;;;;;;;10.34;83.53;100374.84;5074624;28;19912;-88
2022/07/17 14:03:07;;;;;;;;;;;;;;;10.16;86.39;100373.59;5056089;28;19947;-87
2022/07/17 14:05:33;;;;;;;;;;;;;;;10.14;83.50;100378.09;5074517;28;19994;-86
2022/07/17 14:07:59;;;;;;;;;;;;;;;10.44;85.47;100370.09;5073431;28;20429;-86
2022/07/17 14:10:24;;;;;;;;;;;;;;;10.18;83.78;100358.56;5056593;28;19959;-85
2022/07/17 14:12:50;;;;;;;;;;;;;;;10.37;85.79;100361.50;5074345;28;20533;-86
2022/07/17 14:15:15;;;;;;;;;;;;;;;10.02;84.01;100359.94;5073995;28;19916;-86
2022/07/17 14:17:40;;;;;;;;;;;;;;;10.10;86.04;100355.25;5074433;28;19928;-85
2022/07/17 14:20:06;;;;;;;;;;;;;;;10.18;84.03;100353.25;5074474;28;19923;-85
2022/07/17 14:22:31;;;;;;;;;;;;;;;10.17;85.16;100346.22;5073344;28;19928;-85
2022/07/17 14:24:56;;;;;;;;;;;;;;;10.09;84.04;100342.94;5074382;28;19927;-83
2022/07/17 14:27:21;;;;;;;;;;;;;;;10.12;84.40;100345.50;5074285;28;20322;-85
2022/07/17 14:29:47;;;;;;;;;;;;;;;10.31;83.51;100336.03;5056297;28;19917;-87
2022/07/17 14:32:12;;;;;;;;;;;;;;;10.22;84.08;100338.13;5056402;28;19923;-86
2022/07/17 14:34:38;;;;;;;;;;;;;;;10.02;84.20;100333.44;5074198;28;19969;-85
2022/07/17 14:37:06;;;;;;;;;;;;;;;10.03;84.42;100333.41;5055955;28;20398;-84
2022/07/17 14:39:31;;;;;;;;;;;;;;;10.00;84.66;100339.69;5072511;28;19924;-82
2022/07/17 14:41:57;;;;;;;;;;;;;;;10.03;84.17;100345.78;5073962;28;19931;-86
2022/07/17 14:44:22;;;;;;;;;;;;;;;10.17;84.71;100336.47;5074004;28;19917;-88
2022/07/17 14:46:47;;;;;;;;;;;;;;;10.05;83.69;100333.34;5073664;28;19939;-86
2022/07/17 14:49:13;;;;;;;;;;;;;;;10.13;85.40;100331.31;5056043;28;19970;-86
2022/07/17 14:51:38;;;;;;;;;;;;;;;9.99;82.99;100321.19;5073448;28;19935;-86
2022/07/17 14:54:03;;;;;;;;;;;;;;;10.21;85.99;100328.44;5072189;28;19916;-86
2022/07/17 14:56:28;;;;;;;;;;;;;;;9.99;83.37;100316.75;5073709;28;20285;-84
2022/07/17 14:58:54;;;;;;;;;;;;;;;10.30;86.07;100322.84;5073680;28;19970;-86
2022/07/17 15:01:19;;;;;;;;;;;;;;;10.04;83.89;100318.41;5073739;28;20401;-86
2022/07/17 15:03:44;;;;;;;;;;;;;;;10.48;85.38;100316.97;5073561;28;19916;-85
2022/07/17 15:06:12;;;;;;;;;;;;;;;10.06;84.22;100313.91;5073530;28;19923;-84
2022/07/17 15:08:37;;;;;;;;;;;;;;;10.08;86.29;100320.03;5072302;28;19963;-84
2022/07/17 15:11:05;;;;;;;;;;;;;;;10.13;84.53;100320.72;5073459;28;19967;-85
2022/07/17 15:13:30;;;;;;;;;;;;;;;9.78;86.19;100328.91;5055367;28;20004;-82
2022/07/17 15:15:56;;;;;;;;;;;;;;;9.92;84.09;100319.66;5073270;28;20047;-84
2022/07/17 15:18:21;;;;;;;;;;;;;;;10.03;84.84;100311.38;5073418;28;20002;-84
2022/07/17 15:20:46;;;;;;;;;;;;;;;10.20;83.72;100321.44;5055013;28;19931;-86
2022/07/17 15:23:12;;;;;;;;;;;;;;;10.26;84.36;100313.25;5072184;28;19943;-87
2022/07/17 15:25:37;;;;;;;;;;;;;;;10.25;84.83;100317.69;5072155;28;20014;-86
2022/07/17 15:28:02;;;;;;;;;;;;;;;10.15;85.03;100301.25;5055033;28;19970;-84
2022/07/17 15:30:28;;;;;;;;;;;;;;;10.25;85.88;100311.53;5073080;28;19920;-86
2022/07/17 15:32:53;;;;;;;;;;;;;;;10.08;83.85;100304.13;5072870;28;19923;-86
2022/07/17 15:35:18;;;;;;;;;;;;;;;10.07;85.32;100307.69;5054901;28;19916;-86
2022/07/17 15:37:44;;;;;;;;;;;;;;;10.26;83.48;100300.91;5071698;28;20000;-86
2022/07/17 15:40:09;;;;;;;;;;;;;;;10.35;86.10;100300.63;5054752;28;19974;-86
2022/07/17 15:42:35;;;;;;;;;;;;;;;10.17;84.30;100290.59;5073071;28;19924;-86
2022/07/17 15:45:00;;;;;;;;;;;;;;;10.30;87.77;100299.84;5072543;28;19928;-85
2022/07/17 15:47:25;;;;;;;;;;;;;;;10.04;84.92;100292.78;5072914;28;19920;-87
2022/07/17 15:49:50;;;;;;;;;;;;;;;10.13;86.90;100296.91;5054594;28;19916;-86
2022/07/17 15:52:16;;;;;;;;;;;;;;;9.73;85.14;100293.78;5071872;28;19928;-87
2022/07/17 15:54:41;;;;;;;;;;;;;;;9.97;86.45;100299.19;5072487;28;19916;-86
2022/07/17 15:57:06;;;;;;;;;;;;;;;10.08;84.78;100286.47;5072590;28;19921;-86
2022/07/17 15:59:32;;;;;;;;;;;;;;;10.17;85.34;100277.38;5072639;28;19958;-87
2022/07/17 16:01:57;;;;;;;;;;;;;;;10.14;85.48;100285.41;5072400;28;19982;-87
2022/07/17 16:04:22;;;;;;;;;;;;;;;9.98;85.31;100279.75;5072688;28;20003;-85
2022/07/17 16:06:51;;;;;;;;;;;;;;;10.05;86.13;100283.06;5071679;28;20408;-85
2022/07/17 16:09:18;;;;;;;;;;;;;;;9.97;85.58;100278.00;5046715;28;19946;-86
2022/07/17 16:11:43;;;;;;;;;;;;;;;10.13;86.09;100275.72;5070198;28;19999;-86
2022/07/17 16:14:08;;;;;;;;;;;;;;;10.15;85.70;100279.19;5071235;28;20039;-85
2022/07/17 16:16:34;;;;;;;;;;;;;;;10.57;86.45;100272.53;5068417;28;19928;-85
2022/07/17 16:18:59;;;;;;;;;;;;;;;10.08;85.26;100273.22;5048592;28;20673;-85
2022/07/17 16:21:24;;;;;;;;;;;;;;;10.41;86.56;100264.25;5069768;28;19928;-84
2022/07/17 16:23:50;;;;;;;;;;;;;;;10.04;86.18;100260.16;5068442;28;19924;-84
2022/07/17 16:26:16;;;;;;;;;;;;;;;10.59;87.06;100247.69;5066473;28;19929;-84
2022/07/17 16:28:42;;;;;;;;;;;;;;;10.66;85.11;100249.22;5069167;28;20390;-84
2022/07/17 16:31:08;;;;;;;;;;;;;;;10.41;88.01;100253.66;5069467;28;19928;-85
2022/07/17 16:33:33;;;;;;;;;;;;;;;10.40;86.48;100246.59;5068527;28;19986;-84
2022/07/17 16:35:58;;;;;;;;;;;;;;;10.53;88.50;100234.69;5067768;28;19920;-87
2022/07/17 16:38:23;;;;;;;;;;;;;;;10.33;86.79;100238.00;5070077;28;19923;-83
2022/07/17 16:40:49;;;;;;;;;;;;;;;10.30;89.43;100231.00;5071926;28;19925;-85
2022/07/17 16:43:14;;;;;;;;;;;;;;;10.26;89.01;100244.38;5067280;28;19920;-84
2022/07/17 16:45:39;;;;;;;;;;;;;;;10.53;90.59;100245.28;5069539;28;20027;-86
2022/07/17 16:48:20;;;;;;;;;;;;;;;10.35;87.79;100244.13;5117809;27;19974;-82
2022/07/17 16:50:45;;;;;;;;;;;;;;;10.55;89.31;100238.13;5107202;28;19919;-85
2022/07/17 16:53:12;;;;;;;;;;;;;;;10.39;87.39;100243.09;5103608;28;19930;-85
2022/07/17 16:55:37;;;;;;;;;;;;;;;10.63;88.49;100236.06;5114046;27;19920;-85
2022/07/17 16:58:03;;;;;;;;;;;;;;;10.57;87.86;100227.47;5105915;28;20298;-84
2022/07/17 17:00:29;;;;;;;;;;;;;;;10.52;88.03;100228.50;5112995;28;19947;-84
2022/07/17 17:02:54;;;;;;;;;;;;;;;10.35;88.00;100222.91;5103162;28;19974;-83
2022/07/17 17:05:20;;;;;;;;;;;;;;;10.60;87.92;100225.56;5100161;28;19924;-84
2022/07/17 17:07:45;;;;;;;;;;;;;;;10.45;88.22;100224.34;5118423;28;19965;-84
2022/07/17 17:10:11;;;;;;;;;;;;;;;10.20;87.48;100234.88;5119453;28;19999;-86
2022/07/17 17:12:37;;;;;;;;;;;;;;;10.38;88.08;100228.13;5119161;28;19923;-87
2022/07/17 17:15:03;;;;;;;;;;;;;;;10.21;86.38;100226.03;5116371;28;20035;-88
2022/07/17 17:17:28;;;;;;;;;;;;;;;10.55;87.66;100216.94;5118992;28;19923;-83
2022/07/17 17:19:54;;;;;;;;;;;;;;;10.40;85.85;100220.13;5106259;28;19927;-88
2022/07/17 17:22:19;;;;;;;;;;;;;;;10.58;88.18;100226.53;5118975;27;20343;-89
2022/07/17 17:24:44;;;;;;;;;;;;;;;10.25;86.47;100227.66;5103240;28;20010;-89
2022/07/17 17:27:09;;;;;;;;;;;;;;;10.53;88.46;100221.44;5119106;27;19920;-86
2022/07/17 17:29:35;;;;;;;;;;;;;;;10.23;86.65;100228.59;5119529;27;19977;-87
2022/07/17 17:32:01;;;;;;;;;;;;;;;10.67;88.41;100224.44;5117081;27;19927;-87
2022/07/17 17:34:27;;;;;;;;;;;;;;;10.39;86.73;100221.91;5119800;28;20880;-81
2022/07/17 17:36:53;;;;;;;;;;;;;;;10.60;88.77;100222.94;5117271;28;19920;-87
2022/07/17 17:39:18;;;;;;;;;;;;;;;10.45;87.07;100227.00;5115062;27;19924;-87
2022/07/17 17:41:44;;;;;;;;;;;;;;;10.67;88.40;100234.16;5101654;28;20547;-85
2022/07/17 17:44:09;;;;;;;;;;;;;;;10.58;87.30;100234.47;5102737;28;19927;-85
2022/07/17 17:46:35;;;;;;;;;;;;;;;10.52;87.57;100235.59;5113367;28;19931;-85
2022/07/17 17:49:00;;;;;;;;;;;;;;;10.58;87.58;100230.06;5118331;28;19926;-83
2022/07/17 17:51:28;;;;;;;;;;;;;;;11.04;84.73;100232.78;5116436;27;20399;-85
2022/07/17 17:53:57;;;;;;;;;;;;;;;10.81;87.26;100238.97;5114585;27;19920;-85
2022/07/17 17:56:22;;;;;;;;;;;;;;;10.57;86.25;100232.78;5103531;28;19935;-83
2022/07/17 17:58:47;;;;;;;;;;;;;;;10.72;88.11;100232.19;5109781;28;20298;-85
2022/07/17 18:01:13;;;;;;;;;;;;;;;10.57;85.98;100230.13;5089802;28;19923;-84
2022/07/17 18:03:38;;;;;;;;;;;;;;;10.86;87.90;100235.22;5087425;28;20371;-83
2022/07/17 18:06:04;;;;;;;;;;;;;;;10.40;86.54;100239.50;5103346;28;19916;-85
2022/07/17 18:08:30;;;;;;;;;;;;;;;10.52;89.34;100240.88;5093455;28;19920;-87
2022/07/17 18:10:58;;;;;;;;;;;;;;;10.58;86.92;100235.38;5091045;28;19927;-84
2022/07/17 18:13:24;;;;;;;;;;;;;;;10.70;88.37;100242.00;5103819;28;19934;-86
2022/07/17 18:15:50;;;;;;;;;;;;;;;10.47;87.79;100246.34;5103514;28;19923;-86
2022/07/17 18:18:15;;;;;;;;;;;;;;;10.58;88.85;100242.44;5087832;28;19923;-84
2022/07/17 18:20:41;;;;;;;;;;;;;;;10.53;87.96;100253.22;5097953;28;19955;-85
2022/07/17 18:23:08;;;;;;;;;;;;;;;10.57;88.13;100244.22;5099644;28;19920;-86
2022/07/17 18:25:33;;;;;;;;;;;;;;;10.44;87.93;100246.44;5104715;28;19915;-87
2022/07/17 18:27:58;;;;;;;;;;;;;;;10.54;87.48;100245.19;5104558;28;19953;-85
2022/07/17 18:30:24;;;;;;;;;;;;;;;10.57;88.05;100238.06;5104160;28;19986;-86
2022/07/17 18:32:50;;;;;;;;;;;;;;;10.53;86.67;100242.63;5091928;28;19946;-86
2022/07/17 18:35:15;;;;;;;;;;;;;;;10.69;88.17;100243.81;5105301;28;19919;-86
2022/07/17 18:37:41;;;;;;;;;;;;;;;10.52;86.56;100241.75;5102561;28;20017;-87
2022/07/17 18:40:08;;;;;;;;;;;;;;;10.76;88.49;100246.22;5094441;28;20358;-86
2022/07/17 18:42:34;;;;;;;;;;;;;;;10.49;87.07;100252.44;5102256;28;19922;-87
2022/07/17 18:44:59;;;;;;;;;;;;;;;10.83;88.58;100243.31;5103963;28;19942;-87
2022/07/17 18:47:24;;;;;;;;;;;;;;;10.52;86.77;100236.44;5103039;28;20015;-86
2022/07/17 18:49:49;;;;;;;;;;;;;;;10.79;88.69;100243.47;5098562;28;19966;-84
2022/07/17 18:52:15;;;;;;;;;;;;;;;10.59;87.42;100247.69;5097753;28;19959;-86
2022/07/17 18:54:40;;;;;;;;;;;;;;;10.85;89.24;100246.75;5083654;28;19924;-86
2022/07/17 18:57:06;;;;;;;;;;;;;;;10.70;87.64;100249.94;5104394;28;19916;-87
2022/07/17 18:59:31;;;;;;;;;;;;;;;10.86;89.20;100255.56;5086103;28;20380;-83
2022/07/17 19:01:56;;;;;;;;;;;;;;;10.67;88.99;100253.59;5103324;28;19922;-86
2022/07/17 19:04:22;;;;;;;;;;;;;;;10.88;89.61;100254.59;5103551;28;19985;-84
2022/07/17 19:06:47;;;;;;;;;;;;;;;10.71;89.22;100252.53;5098713;28;19920;-86
2022/07/17 19:09:12;;;;;;;;;;;;;;;10.75;89.61;100257.75;5103617;28;20260;-87
2022/07/17 19:11:38;;;;;;;;;;;;;;;10.80;89.50;100248.72;5100122;28;20440;-87
2022/07/17 19:14:04;;;;;;;;;;;;;;;10.75;89.50;100253.28;5094864;28;20025;-86
2022/07/17 19:16:30;;;;;;;;;;;;;;;10.71;90.33;100251.69;5098410;28;19920;-85
2022/07/17 19:18:58;;;;;;;;;;;;;;;10.67;89.35;100250.94;5095709;28;19923;-82
2022/07/17 19:21:24;;;;;;;;;;;;;;;10.73;90.39;100250.69;5099981;28;19926;-81
2022/07/17 19:23:49;;;;;;;;;;;;;;;10.61;88.69;100256.47;5101186;28;20003;-89
2022/07/17 19:26:15;;;;;;;;;;;;;;;10.84;90.90;100262.72;5098172;28;19977;-87
2022/07/17 19:28:40;;;;;;;;;;;;;;;10.67;89.44;100256.25;5102264;28;20014;-88
2022/07/17 19:31:06;;;;;;;;;;;;;;;11.04;90.96;100265.50;5101210;28;19924;-88
2022/07/17 19:33:33;;;;;;;;;;;;;;;10.71;89.19;100257.84;5092980;28;19938;-91
2022/07/17 19:35:59;;;;;;;;;;;;;;;10.97;90.80;100268.44;5084127;28;19923;-91
2022/07/17 19:38:24;;;;;;;;;;;;;;;10.72;89.24;100269.31;5100681;28;19973;-83
2022/07/17 19:40:49;;;;;;;;;;;;;;;11.00;91.09;100274.47;5103403;28;19916;-87
2022/07/17 19:43:15;;;;;;;;;;;;;;;10.77;88.91;100271.78;5101220;28;19916;-88
2022/07/17 19:45:40;;;;;;;;;;;;;;;11.00;90.07;100279.78;5101276;28;20075;-87
2022/07/17 19:48:05;;;;;;;;;;;;;;;10.72;89.07;100288.75;5061437;28;19920;-87
2022/07/17 19:50:40;;;;;;;;;;;;;;;11.01;90.17;100286.81;5063490;28;19916;-94
2022/07/17 19:53:05;;;;;;;;;;;;;;;10.78;88.79;100294.75;5059724;28;19920;-87
2022/07/17 19:55:30;;;;;;;;;;;;;;;11.00;90.01;100295.69;5052974;28;20427;-88
2022/07/17 19:57:56;;;;;;;;;;;;;;;10.71;89.39;100292.31;5061300;28;19921;-87
2022/07/17 20:00:21;;;;;;;;;;;;;;;11.06;90.29;100302.56;5061903;28;20212;-86
2022/07/17 20:02:47;;;;;;;;;;;;;;;10.89;90.04;100305.81;5060980;28;19940;-86
2022/07/17 20:05:12;;;;;;;;;;;;;;;10.92;89.68;100313.66;5063936;28;19921;-88
2022/07/17 20:07:37;;;;;;;;;;;;;;;10.94;90.17;100314.47;5061583;28;19920;-87
2022/07/17 20:10:03;;;;;;;;;;;;;;;10.70;89.38;100319.72;5062775;28;19916;-87
2022/07/17 20:12:28;;;;;;;;;;;;;;;10.84;90.99;100321.03;5060800;28;20341;-89
2022/07/17 20:14:53;;;;;;;;;;;;;;;10.72;89.56;100330.25;5061858;28;19917;-86
2022/07/17 20:17:18;;;;;;;;;;;;;;;10.81;91.16;100335.25;5061992;28;19927;-88
2022/07/17 20:19:44;;;;;;;;;;;;;;;10.59;89.18;100327.19;5061013;28;20302;-89
2022/07/17 20:22:09;;;;;;;;;;;;;;;10.76;90.88;100328.41;5061133;28;19921;-87
2022/07/17 20:24:35;;;;;;;;;;;;;;;10.51;89.38;100337.19;5060274;28;20386;-87
2022/07/17 20:27:00;;;;;;;;;;;;;;;10.88;91.24;100339.44;5060783;28;20384;-88
2022/07/17 20:29:26;;;;;;;;;;;;;;;10.71;89.13;100340.00;5061659;28;19962;-88
2022/07/17 20:31:52;;;;;;;;;;;;;;;10.75;90.77;100345.22;5060642;28;19943;-88
2022/07/17 20:34:17;;;;;;;;;;;;;;;10.59;89.78;100343.06;5061417;28;19924;-87
2022/07/17 20:36:47;;;;;;;;;;;;;;;10.68;89.76;100344.56;5061863;28;19917;-87
2022/07/17 20:39:15;;;;;;;;;;;;;;;10.63;90.16;100350.00;5060398;28;19917;-88
2022/07/17 20:41:41;;;;;;;;;;;;;;;10.66;88.75;100355.22;5061705;28;19921;-88
2022/07/17 20:44:06;;;;;;;;;;;;;;;10.93;89.95;100352.53;5062172;28;19967;-88
2022/07/17 20:46:31;;;;;;;;;;;;;;;10.62;88.78;100342.97;5067258;28;20444;-88
2022/07/17 20:48:57;;;;;;;;;;;;;;;10.95;90.14;100340.06;5102024;28;19927;-87
2022/07/17 20:51:22;;;;;;;;;;;;;;;10.74;88.64;100339.06;5090005;28;19912;-86
2022/07/17 20:53:48;;;;;;;;;;;;;;;10.93;90.53;100341.94;5100810;28;19920;-87
2022/07/17 20:56:13;;;;;;;;;;;;;;;10.66;89.26;100349.06;5102865;28;19912;-87
2022/07/17 20:58:38;;;;;;;;;;;;;;;10.99;90.95;100352.31;5101817;28;20065;-87
2022/07/17 21:01:04;;;;;;;;;;;;;;;10.72;90.75;100346.16;5096581;28;20365;-88
2022/07/17 21:03:31;;;;;;;;;;;;;;;10.69;91.53;100352.47;5097901;28;19947;-87
2022/07/17 21:05:56;;;;;;;;;;;;;;;10.87;90.73;100348.28;5102052;28;19917;-87
2022/07/17 21:08:25;;;;;;;;;;;;;;;10.71;90.34;100353.25;5100849;28;19934;-87
2022/07/17 21:10:51;;;;;;;;;;;;;;;10.61;90.68;100350.97;5099059;28;19927;-84
2022/07/17 21:13:16;;;;;;;;;;;;;;;10.64;89.61;100346.47;5101860;28;19985;-88
2022/07/17 21:15:42;;;;;;;;;;;;;;;10.81;90.66;100352.94;5099535;28;19924;-84
2022/07/17 21:18:07;;;;;;;;;;;;;;;10.52;89.25;100360.13;5091236;28;20019;-88
2022/07/17 21:20:32;;;;;;;;;;;;;;;10.85;91.66;100366.06;5100996;28;19916;-83
2022/07/17 21:22:58;;;;;;;;;;;;;;;10.64;89.47;100367.66;5100854;28;19920;-88
2022/07/17 21:25:23;;;;;;;;;;;;;;;10.86;91.22;100372.22;5101831;28;20420;-84
2022/07/17 21:27:48;;;;;;;;;;;;;;;10.66;89.34;100367.59;5102062;28;19922;-84
2022/07/17 21:30:15;;;;;;;;;;;;;;;10.86;90.53;100377.50;5101798;28;19919;-87
2022/07/17 21:32:40;;;;;;;;;;;;;;;10.68;89.15;100379.88;5101493;28;19969;-88
2022/07/17 21:35:06;;;;;;;;;;;;;;;10.75;89.46;100377.88;5105331;28;20338;-84
2022/07/17 21:37:31;;;;;;;;;;;;;;;10.86;89.13;100382.81;5104652;28;20940;-88
2022/07/17 21:39:57;;;;;;;;;;;;;;;10.79;88.36;100383.97;5104813;28;19951;-83
2022/07/17 21:42:22;;;;;;;;;;;;;;;10.85;89.92;100381.06;5095089;28;20931;-88
2022/07/17 21:44:47;;;;;;;;;;;;;;;10.60;87.80;100386.38;5105222;28;20335;-87
2022/07/17 21:47:13;;;;;;;;;;;;;;;10.92;89.93;100384.41;5104823;28;19931;-87
2022/07/17 21:49:38;;;;;;;;;;;;;;;10.63;88.10;100379.16;5105485;28;20382;-88
2022/07/17 21:52:03;;;;;;;;;;;;;;;10.91;90.43;100378.22;5102646;28;19924;-89
2022/07/17 21:54:29;;;;;;;;;;;;;;;10.68;88.58;100379.88;5104628;28;19916;-86
2022/07/17 21:56:54;;;;;;;;;;;;;;;11.01;89.42;100387.59;5092947;28;19923;-87
2022/07/17 21:59:19;;;;;;;;;;;;;;;10.76;88.90;100378.75;5104562;28;19990;-86
2022/07/17 22:01:45;;;;;;;;;;;;;;;10.69;89.26;100378.06;5105437;28;19916;-86
2022/07/17 22:04:10;;;;;;;;;;;;;;;10.69;89.40;100371.00;5094952;28;19923;-87
2022/07/17 22:06:36;;;;;;;;;;;;;;;10.58;88.97;100370.50;5104761;28;19920;-85
2022/07/17 22:09:01;;;;;;;;;;;;;;;10.77;89.48;100368.09;5103967;28;20406;-87
2022/07/17 22:11:26;;;;;;;;;;;;;;;10.57;87.91;100370.56;5105055;28;20032;-84
2022/07/17 22:13:53;;;;;;;;;;;;;;;10.70;90.16;100367.41;5094486;28;19920;-86
2022/07/17 22:16:19;;;;;;;;;;;;;;;10.30;88.88;100371.38;5103130;28;19924;-88
2022/07/17 22:18:44;;;;;;;;;;;;;;;10.79;90.85;100373.34;5104371;28;19920;-86
2022/07/17 22:21:10;;;;;;;;;;;;;;;10.54;89.17;100371.53;5104538;28;19916;-86
2022/07/17 22:23:39;;;;;;;;;;;;;;;10.61;91.28;100373.06;5103295;28;19919;-87
2022/07/17 22:26:05;;;;;;;;;;;;;;;10.60;89.76;100370.47;5104228;28;19924;-86
2022/07/17 22:28:32;;;;;;;;;;;;;;;10.60;90.18;100371.31;5103260;28;19922;-86
2022/07/17 22:30:58;;;;;;;;;;;;;;;10.70;90.53;100372.72;5104770;28;19915;-83
2022/07/17 22:33:23;;;;;;;;;;;;;;;10.58;89.84;100377.56;5102385;28;19927;-83
2022/07/17 22:35:48;;;;;;;;;;;;;;;10.79;90.96;100381.31;5093903;28;19916;-84
2022/07/17 22:38:13;;;;;;;;;;;;;;;10.58;89.85;100372.28;5102670;28;19916;-84
2022/07/17 22:40:38;;;;;;;;;;;;;;;10.97;91.48;100383.31;5103899;28;19928;-83
2022/07/17 22:43:04;;;;;;;;;;;;;;;10.84;89.40;100382.00;5104147;28;19966;-85
2022/07/17 22:45:29;;;;;;;;;;;;;;;11.02;91.49;100378.69;5103837;28;19920;-86
2022/07/17 22:47:54;;;;;;;;;;;;;;;10.76;90.45;100373.47;5102818;28;20459;-85
2022/07/17 22:50:20;;;;;;;;;;;;;;;11.01;91.88;100376.09;5103869;28;19943;-85
2022/07/17 22:52:45;;;;;;;;;;;;;;;10.67;90.98;100377.28;5103071;28;19927;-85
2022/07/17 22:55:10;;;;;;;;;;;;;;;11.01;92.01;100373.44;5104330;28;20279;-86
2022/07/17 22:57:35;;;;;;;;;;;;;;;10.92;90.95;100381.75;5103651;28;19939;-85
2022/07/17 23:00:01;;;;;;;;;;;;;;;10.88;91.73;100375.66;5103494;28;20004;-85
2022/07/17 23:02:26;;;;;;;;;;;;;;;11.05;91.60;100378.59;5102629;28;19916;-85
2022/07/17 23:04:51;;;;;;;;;;;;;;;10.96;90.90;100368.34;5103713;28;20397;-86
2022/07/17 23:07:17;;;;;;;;;;;;;;;10.98;91.80;100374.44;5103135;28;19958;-85
2022/07/17 23:09:43;;;;;;;;;;;;;;;10.82;90.67;100365.28;5103655;28;19927;-86
2022/07/17 23:12:08;;;;;;;;;;;;;;;10.89;92.19;100370.31;5103474;28;19924;-87
